Weather History for KI35 - March, 2013

Change the Weather History Date:

Thursday, March 21, 2013

  Actual Average (KLOZ) Record (KLOZ)
Temperature  
Mean Temperature 27 °F 49 °F  
Max Temperature 33 °F 60 °F 83 °F (2012)
Min Temperature 21 °F 37 °F 13 °F (1965)
Degree Days  
Heating Degree Days 38 16  
Month to date heating degree days 401  
Since 1 July heating degree days 3677  
Cooling Degree Days 0 0  
Month to date cooling degree days 0  
Year to date cooling degree days 0  
Moisture  
Dew Point 10 °F    
Average Humidity 47    
Maximum Humidity 63    
Minimum Humidity 35    
Precipitation  
Precipitation 0.00 in 0.13 in 2.48 in (1955)
Month to date precipitation 2.74  
Year to date precipitation 9.99  
Sea Level Pressure  
Sea Level Pressure 29.94 in    
Wind  
Wind Speed 7 mph (WNW)    
Max Wind Speed 16 mph    
Max Gust Speed 25 mph    
Visibility 10 miles    
Events      
T = Trace of Precipitation, MM = Missing Value Source: NWS Daily Summary

Daily Weather History Graph

Daily Weather History Graph

Search for Another Location

Airport or City:

Trip Planner

Search our weather history database for the weather conditions in past years. The results will help you decide how hot, cold, wet, or windy it might be!

Date:

Astronomy

Mar. 21, 2013 Rise Set
Actual Time 7:35 AM EDT 7:46 PM EDT
Civil Twilight 7:09 AM EDT 8:12 PM EDT
Nautical Twilight 6:39 AM EDT 8:42 PM EDT
Astronomical Twilight 6:08 AM EDT 9:13 PM EDT
Moon 2:22 PM EDT (3/21) 3:48 AM EDT (3/21)
Length of Visible Light 13h 02m
Length of Day
12h 11m
Waxing Gibbous, 68% of the Moon is Illuminated
Mar 21
Waxing Gibbous
Mar 27
Full
Apr 3
Last Quarter
Apr 10
New
Apr 18
First Quarter

Hourly Weather History & Observations

Time (EDT) Temp. Windchill Dew Point Humidity Pressure Visibility Wind Dir Wind Speed Gust Speed Precip Events Conditions
12:15 AM 30.2 °F 24.3 °F 12.2 °F 47% 29.94 in 10.0 mi NW 5.8 mph 16.1 mph N/A   Clear
12:35 AM 30.2 °F 19.8 °F 12.2 °F 47% 29.94 in 10.0 mi WNW 13.8 mph 19.6 mph N/A   Clear
12:55 AM 28.4 °F 22.2 °F 12.2 °F 51% 29.94 in 10.0 mi WNW 5.8 mph - N/A   Scattered Clouds
1:15 AM 28.4 °F 21.2 °F 12.2 °F 51% 29.94 in 10.0 mi WNW 6.9 mph 16.1 mph N/A   Scattered Clouds
1:35 AM 28.4 °F 19.7 °F 12.2 °F 51% 29.94 in 10.0 mi WNW 9.2 mph - N/A   Clear
2:15 AM 28.4 °F 21.2 °F 12.2 °F 51% 29.94 in 10.0 mi WNW 6.9 mph - N/A   Overcast
2:35 AM 28.4 °F 21.2 °F 12.2 °F 51% 29.94 in 10.0 mi West 6.9 mph - N/A   Overcast
2:55 AM 28.4 °F 19.7 °F 12.2 °F 51% 29.94 in 10.0 mi West 9.2 mph - N/A   Overcast
3:15 AM 26.6 °F 16.8 °F 12.2 °F 55% 29.94 in 10.0 mi NNW 10.4 mph - N/A   Overcast
3:35 AM 26.6 °F 16.2 °F 10.4 °F 51% 29.93 in 10.0 mi NW 11.5 mph 18.4 mph N/A   Overcast
3:55 AM 26.6 °F 18.2 °F 10.4 °F 51% 29.93 in 10.0 mi NW 8.1 mph - N/A   Overcast
4:15 AM 24.8 °F 16.9 °F 10.4 °F 54% 29.93 in 10.0 mi WNW 6.9 mph 17.3 mph N/A   Overcast
4:35 AM 24.8 °F 16.9 °F 8.6 °F 50% 29.92 in 10.0 mi WNW 6.9 mph - N/A   Overcast
4:55 AM 23.0 °F 14.7 °F 8.6 °F 54% 29.92 in 10.0 mi NW 6.9 mph - N/A   Scattered Clouds
5:15 AM 23.0 °F 15.8 °F 8.6 °F 54% 29.92 in 10.0 mi West 5.8 mph - N/A   Clear
5:35 AM 23.0 °F 15.8 °F 8.6 °F 54% 29.92 in 10.0 mi West 5.8 mph 17.3 mph N/A   Clear
5:55 AM 23.0 °F 17.0 °F 8.6 °F 54% 29.92 in 10.0 mi WNW 4.6 mph - N/A   Clear
6:15 AM 23.0 °F 17.0 °F 8.6 °F 54% 29.92 in 10.0 mi WNW 4.6 mph - N/A   Clear
6:35 AM 21.2 °F 13.6 °F 10.4 °F 63% 29.92 in 10.0 mi West 5.8 mph - N/A   Clear
6:55 AM 21.2 °F 14.9 °F 10.4 °F 63% 29.92 in 10.0 mi West 4.6 mph - N/A   Clear
7:15 AM 21.2 °F 16.4 °F 10.4 °F 63% 29.91 in 10.0 mi WSW 3.5 mph - N/A   Clear
7:35 AM 21.2 °F 16.4 °F 10.4 °F 63% 29.92 in 10.0 mi West 3.5 mph - N/A   Clear
7:55 AM 21.2 °F 14.9 °F 10.4 °F 63% 29.92 in 10.0 mi West 4.6 mph - N/A   Clear
8:15 AM 21.2 °F 14.9 °F 10.4 °F 63% 29.92 in 10.0 mi West 4.6 mph - N/A   Clear
8:55 AM 23.0 °F 18.4 °F 12.2 °F 63% 29.93 in 10.0 mi West 3.5 mph - N/A   Clear
9:15 AM 26.6 °F 19.1 °F 12.2 °F 55% 29.93 in 10.0 mi West 6.9 mph - N/A   Clear
9:35 AM 24.8 °F 16.1 °F 10.4 °F 54% 29.94 in 10.0 mi WNW 8.1 mph - N/A   Scattered Clouds
9:55 AM 26.6 °F 19.1 °F 10.4 °F 51% 29.93 in 10.0 mi WNW 6.9 mph - N/A   Mostly Cloudy
10:15 AM 26.6 °F 19.1 °F 8.6 °F 47% 29.93 in 10.0 mi NW 6.9 mph - N/A   Mostly Cloudy
10:35 AM 28.4 °F 22.2 °F 10.4 °F 47% 29.94 in 10.0 mi West 5.8 mph - N/A   Overcast
10:55 AM 28.4 °F 21.2 °F 8.6 °F 43% 29.94 in 10.0 mi West 6.9 mph 20.7 mph N/A   Mostly Cloudy
11:15 AM 28.4 °F 16.6 °F 8.6 °F 43% 29.94 in 10.0 mi WNW 16.1 mph 24.2 mph N/A   Overcast
11:35 AM 28.4 °F 18.5 °F 8.6 °F 43% 29.94 in 10.0 mi NW 11.5 mph 19.6 mph N/A   Mostly Cloudy
11:55 AM 28.4 °F 18.0 °F 8.6 °F 43% 29.94 in 10.0 mi West 12.7 mph 18.4 mph N/A   Overcast
12:15 PM 30.2 °F 21.9 °F 8.6 °F 40% 29.94 in 10.0 mi WNW 9.2 mph 19.6 mph N/A   Overcast
12:35 PM 30.2 °F 21.9 °F 8.6 °F 40% 29.94 in 10.0 mi West 9.2 mph 25.3 mph N/A   Overcast
12:55 PM 30.2 °F 20.2 °F 10.4 °F 44% 29.94 in 10.0 mi WNW 12.7 mph 19.6 mph N/A   Overcast
1:15 PM 32.0 °F 21.6 °F 8.6 °F 38% 29.94 in 10.0 mi WNW 15.0 mph 21.9 mph N/A   Overcast
1:35 PM 30.2 °F 22.6 °F 8.6 °F 40% 29.94 in 10.0 mi WSW 8.1 mph 20.7 mph N/A   Overcast
1:55 PM 32.0 °F 21.6 °F 8.6 °F 38% 29.94 in 10.0 mi West 15.0 mph 19.6 mph N/A   Overcast
2:15 PM 30.2 °F 19.8 °F 8.6 °F 40% 29.93 in 10.0 mi NW 13.8 mph 21.9 mph N/A   Mostly Cloudy
2:35 PM 33.8 °F 27.0 °F 10.4 °F 38% 29.93 in 10.0 mi NNW 8.1 mph - N/A   Mostly Cloudy
2:55 PM 33.8 °F 28.6 °F 10.4 °F 38% 29.93 in 10.0 mi NNW 5.8 mph 18.4 mph N/A   Mostly Cloudy
3:15 PM 32.0 °F 22.1 °F 8.6 °F 38% 29.93 in 10.0 mi WNW 13.8 mph 19.6 mph N/A   Scattered Clouds
3:35 PM 32.0 °F 23.6 °F 8.6 °F 38% 29.93 in 10.0 mi WNW 10.4 mph 18.4 mph N/A   Scattered Clouds
3:55 PM 32.0 °F 27.5 °F 8.6 °F 38% 29.93 in 10.0 mi WNW 4.6 mph 19.6 mph N/A   Scattered Clouds
4:15 PM 32.0 °F 24.8 °F 8.6 °F 38% 29.93 in 10.0 mi West 8.1 mph 17.3 mph N/A   Mostly Cloudy
4:35 PM 33.8 °F 24.3 °F 8.6 °F 35% 29.93 in 10.0 mi West 13.8 mph 17.3 mph N/A   Mostly Cloudy
4:55 PM 32.0 °F 22.5 °F 8.6 °F 38% 29.93 in 10.0 mi WNW 12.7 mph 17.3 mph N/A   Scattered Clouds
5:15 PM 32.0 °F 26.4 °F 10.4 °F 41% 29.93 in 10.0 mi WNW 5.8 mph - N/A   Scattered Clouds
5:35 PM 32.0 °F 24.2 °F 8.6 °F 38% 29.93 in 10.0 mi WNW 9.2 mph - N/A   Scattered Clouds
5:55 PM 32.0 °F 23.0 °F 8.6 °F 38% 29.94 in 10.0 mi WNW 11.5 mph 16.1 mph N/A   Clear
6:15 PM 33.8 °F 27.0 °F 8.6 °F 35% 29.94 in 10.0 mi NW 8.1 mph - N/A   Scattered Clouds
6:35 PM 32.0 °F 23.6 °F 8.6 °F 38% 29.94 in 10.0 mi WNW 10.4 mph - N/A   Scattered Clouds
6:55 PM 32.0 °F 24.8 °F 8.6 °F 38% 29.94 in 10.0 mi WNW 8.1 mph - N/A   Scattered Clouds
7:15 PM 32.0 °F 25.6 °F 8.6 °F 38% 29.94 in 10.0 mi NW 6.9 mph - N/A   Scattered Clouds
7:35 PM 32.0 °F 26.4 °F 10.4 °F 41% 29.94 in 10.0 mi NW 5.8 mph - N/A   Clear
7:55 PM 30.2 °F 26.7 °F 10.4 °F 44% 29.95 in 10.0 mi NNW 3.5 mph - N/A   Clear
8:15 PM 30.2 °F 25.4 °F 10.4 °F 44% 29.95 in 10.0 mi NW 4.6 mph - N/A   Clear
8:35 PM 30.2 °F 23.4 °F 10.4 °F 44% 29.96 in 10.0 mi NW 6.9 mph - N/A   Clear
8:55 PM 30.2 °F 26.7 °F 10.4 °F 44% 29.96 in 10.0 mi NNW 3.5 mph - N/A   Clear
9:15 PM 28.4 °F - 10.4 °F 47% 29.96 in 10.0 mi Calm Calm - N/A   Clear
9:35 PM 28.4 °F 23.3 °F 10.4 °F 47% 29.97 in 10.0 mi North 4.6 mph - N/A   Clear
9:55 PM 28.4 °F 23.3 °F 10.4 °F 47% 29.97 in 10.0 mi NNE 4.6 mph - N/A   Clear
10:15 PM 28.4 °F - 12.2 °F 51% 29.97 in 10.0 mi Calm Calm - N/A   Clear
10:35 PM 28.4 °F - 10.4 °F 47% 29.99 in 10.0 mi Calm Calm - N/A   Clear
10:55 PM 26.6 °F - 12.2 °F 55% 29.99 in 10.0 mi Calm Calm - N/A   Clear
11:15 PM 26.6 °F - 12.2 °F 55% 30.00 in 10.0 mi Calm Calm - N/A   Clear
11:35 PM 26.6 °F - 12.2 °F 55% 30.00 in 10.0 mi Calm Calm - N/A   Clear
11:55 PM 26.6 °F - 12.2 °F 55% 30.00 in 10.0 mi Calm Calm - N/A   Clear